sensor_id;sensor_type;location;lat;lon;timestamp;P1;durP1;ratioP1;P2;durP2;ratioP2
51286;SDS011;37364;46.974;18.916;2023-12-14T00:00:51;83.90;;;19.38;;
51286;SDS011;37364;46.974;18.916;2023-12-14T00:03:26;151.15;;;34.08;;
51286;SDS011;37364;46.974;18.916;2023-12-14T00:05:59;278.77;;;75.97;;
51286;SDS011;37364;46.974;18.916;2023-12-14T00:08:31;327.52;;;71.35;;
51286;SDS011;37364;46.974;18.916;2023-12-14T00:11:06;160.00;;;35.22;;
51286;SDS011;37364;46.974;18.916;2023-12-14T00:13:38;162.30;;;42.58;;
51286;SDS011;37364;46.974;18.916;2023-12-14T00:16:10;146.48;;;26.55;;
51286;SDS011;37364;46.974;18.916;2023-12-14T00:18:41;168.57;;;31.88;;
51286;SDS011;37364;46.974;18.916;2023-12-14T00:21:12;170.07;;;43.72;;
51286;SDS011;37364;46.974;18.916;2023-12-14T00:23:43;150.85;;;29.45;;
51286;SDS011;37364;46.974;18.916;2023-12-14T00:26:16;94.97;;;19.48;;
51286;SDS011;37364;46.974;18.916;2023-12-14T00:28:47;135.75;;;39.65;;
51286;SDS011;37364;46.974;18.916;2023-12-14T00:31:27;96.30;;;23.95;;
51286;SDS011;37364;46.974;18.916;2023-12-14T00:33:58;93.32;;;24.25;;
51286;SDS011;37364;46.974;18.916;2023-12-14T00:36:30;81.45;;;21.45;;
51286;SDS011;37364;46.974;18.916;2023-12-14T00:39:01;49.72;;;17.48;;
51286;SDS011;37364;46.974;18.916;2023-12-14T00:41:35;35.33;;;12.00;;
51286;SDS011;37364;46.974;18.916;2023-12-14T00:44:06;68.47;;;16.20;;
51286;SDS011;37364;46.974;18.916;2023-12-14T00:46:37;83.20;;;24.58;;
51286;SDS011;37364;46.974;18.916;2023-12-14T00:49:09;224.38;;;39.38;;
51286;SDS011;37364;46.974;18.916;2023-12-14T00:51:40;180.35;;;36.78;;
51286;SDS011;37364;46.974;18.916;2023-12-14T00:54:11;234.88;;;62.20;;
51286;SDS011;37364;46.974;18.916;2023-12-14T00:56:46;252.85;;;99.57;;
51286;SDS011;37364;46.974;18.916;2023-12-14T00:59:16;114.15;;;36.17;;
51286;SDS011;37364;46.974;18.916;2023-12-14T01:01:47;120.82;;;50.15;;
51286;SDS011;37364;46.974;18.916;2023-12-14T01:06:52;263.83;;;114.70;;
51286;SDS011;37364;46.974;18.916;2023-12-14T01:09:22;126.95;;;43.72;;
51286;SDS011;37364;46.974;18.916;2023-12-14T01:11:57;156.52;;;66.40;;
51286;SDS011;37364;46.974;18.916;2023-12-14T01:14:28;80.85;;;33.40;;
51286;SDS011;37364;46.974;18.916;2023-12-14T01:16:58;112.43;;;52.40;;
51286;SDS011;37364;46.974;18.916;2023-12-14T01:19:30;192.63;;;78.28;;
51286;SDS011;37364;46.974;18.916;2023-12-14T01:22:00;88.85;;;43.65;;
51286;SDS011;37364;46.974;18.916;2023-12-14T01:24:31;69.82;;;31.88;;
51286;SDS011;37364;46.974;18.916;2023-12-14T01:27:05;71.47;;;34.53;;
51286;SDS011;37364;46.974;18.916;2023-12-14T01:29:37;74.60;;;37.72;;
51286;SDS011;37364;46.974;18.916;2023-12-14T01:32:08;92.35;;;44.92;;
51286;SDS011;37364;46.974;18.916;2023-12-14T01:34:39;102.45;;;50.50;;
51286;SDS011;37364;46.974;18.916;2023-12-14T01:37:09;67.57;;;34.45;;
51286;SDS011;37364;46.974;18.916;2023-12-14T01:39:40;63.03;;;33.92;;
51286;SDS011;37364;46.974;18.916;2023-12-14T01:42:15;101.60;;;55.60;;
51286;SDS011;37364;46.974;18.916;2023-12-14T01:44:46;88.60;;;44.10;;
51286;SDS011;37364;46.974;18.916;2023-12-14T01:47:16;117.20;;;61.05;;
51286;SDS011;37364;46.974;18.916;2023-12-14T01:49:48;77.88;;;42.30;;
51286;SDS011;37364;46.974;18.916;2023-12-14T01:52:19;69.18;;;37.83;;
51286;SDS011;37364;46.974;18.916;2023-12-14T01:54:51;55.95;;;30.30;;
51286;SDS011;37364;46.974;18.916;2023-12-14T01:57:26;64.43;;;36.58;;
51286;SDS011;37364;46.974;18.916;2023-12-14T01:59:56;52.33;;;29.77;;
51286;SDS011;37364;46.974;18.916;2023-12-14T02:02:30;56.58;;;30.48;;
51286;SDS011;37364;46.974;18.916;2023-12-14T02:05:03;63.05;;;33.47;;
51286;SDS011;37364;46.974;18.916;2023-12-14T02:07:34;57.80;;;30.50;;
51286;SDS011;37364;46.974;18.916;2023-12-14T02:10:06;69.90;;;34.95;;
51286;SDS011;37364;46.974;18.916;2023-12-14T02:12:41;58.40;;;32.35;;
51286;SDS011;37364;46.974;18.916;2023-12-14T02:15:12;53.05;;;31.23;;
51286;SDS011;37364;46.974;18.916;2023-12-14T02:17:49;71.47;;;35.53;;
51286;SDS011;37364;46.974;18.916;2023-12-14T02:20:20;57.38;;;31.98;;
51286;SDS011;37364;46.974;18.916;2023-12-14T02:22:55;67.57;;;33.35;;
51286;SDS011;37364;46.974;18.916;2023-12-14T02:25:29;48.15;;;27.88;;
51286;SDS011;37364;46.974;18.916;2023-12-14T02:28:02;64.05;;;35.15;;
51286;SDS011;37364;46.974;18.916;2023-12-14T02:30:33;59.67;;;31.90;;
51286;SDS011;37364;46.974;18.916;2023-12-14T02:33:04;57.95;;;32.22;;
51286;SDS011;37364;46.974;18.916;2023-12-14T02:35:35;61.35;;;34.55;;
51286;SDS011;37364;46.974;18.916;2023-12-14T02:38:09;54.55;;;32.05;;
51286;SDS011;37364;46.974;18.916;2023-12-14T02:40:42;66.35;;;34.08;;
51286;SDS011;37364;46.974;18.916;2023-12-14T02:43:14;67.85;;;36.45;;
51286;SDS011;37364;46.974;18.916;2023-12-14T02:45:44;72.78;;;37.90;;
51286;SDS011;37364;46.974;18.916;2023-12-14T02:48:17;78.28;;;37.90;;
51286;SDS011;37364;46.974;18.916;2023-12-14T02:50:47;85.68;;;38.25;;
51286;SDS011;37364;46.974;18.916;2023-12-14T02:53:21;82.97;;;38.53;;
51286;SDS011;37364;46.974;18.916;2023-12-14T02:58:22;78.18;;;35.30;;
51286;SDS011;37364;46.974;18.916;2023-12-14T03:00:54;113.32;;;46.38;;
51286;SDS011;37364;46.974;18.916;2023-12-14T03:03:26;96.65;;;44.63;;
51286;SDS011;37364;46.974;18.916;2023-12-14T03:05:57;112.50;;;45.83;;
51286;SDS011;37364;46.974;18.916;2023-12-14T03:08:31;100.00;;;44.90;;
51286;SDS011;37364;46.974;18.916;2023-12-14T03:11:01;104.55;;;42.08;;
51286;SDS011;37364;46.974;18.916;2023-12-14T03:13:33;86.32;;;43.38;;
51286;SDS011;37364;46.974;18.916;2023-12-14T03:16:04;111.97;;;42.25;;
51286;SDS011;37364;46.974;18.916;2023-12-14T03:18:35;106.57;;;44.80;;
51286;SDS011;37364;46.974;18.916;2023-12-14T03:21:06;95.63;;;40.80;;
51286;SDS011;37364;46.974;18.916;2023-12-14T03:23:40;107.05;;;45.00;;
51286;SDS011;37364;46.974;18.916;2023-12-14T03:26:10;109.38;;;42.83;;
51286;SDS011;37364;46.974;18.916;2023-12-14T03:28:41;100.65;;;43.88;;
51286;SDS011;37364;46.974;18.916;2023-12-14T03:31:13;99.72;;;43.55;;
51286;SDS011;37364;46.974;18.916;2023-12-14T03:33:44;111.72;;;43.88;;
51286;SDS011;37364;46.974;18.916;2023-12-14T03:36:15;91.82;;;44.40;;
51286;SDS011;37364;46.974;18.916;2023-12-14T03:38:49;84.05;;;44.53;;
51286;SDS011;37364;46.974;18.916;2023-12-14T03:41:20;96.40;;;43.13;;
51286;SDS011;37364;46.974;18.916;2023-12-14T03:43:48;105.18;;;44.95;;
51286;SDS011;37364;46.974;18.916;2023-12-14T03:46:19;78.70;;;38.88;;
51286;SDS011;37364;46.974;18.916;2023-12-14T03:48:50;66.95;;;34.78;;
51286;SDS011;37364;46.974;18.916;2023-12-14T03:51:20;117.80;;;63.30;;
51286;SDS011;37364;46.974;18.916;2023-12-14T03:53:54;83.20;;;47.65;;
51286;SDS011;37364;46.974;18.916;2023-12-14T03:56:26;55.78;;;31.25;;
51286;SDS011;37364;46.974;18.916;2023-12-14T03:58:56;48.85;;;28.05;;
51286;SDS011;37364;46.974;18.916;2023-12-14T04:01:28;55.75;;;28.00;;
51286;SDS011;37364;46.974;18.916;2023-12-14T04:04:01;57.85;;;29.50;;
51286;SDS011;37364;46.974;18.916;2023-12-14T04:06:32;56.03;;;34.72;;
51286;SDS011;37364;46.974;18.916;2023-12-14T04:09:05;55.65;;;27.05;;
51286;SDS011;37364;46.974;18.916;2023-12-14T04:11:39;59.33;;;29.02;;
51286;SDS011;37364;46.974;18.916;2023-12-14T04:14:10;60.85;;;29.48;;
51286;SDS011;37364;46.974;18.916;2023-12-14T04:16:41;58.78;;;28.27;;
51286;SDS011;37364;46.974;18.916;2023-12-14T04:19:12;54.50;;;27.50;;
51286;SDS011;37364;46.974;18.916;2023-12-14T04:21:43;77.97;;;27.67;;
51286;SDS011;37364;46.974;18.916;2023-12-14T04:24:17;61.55;;;30.40;;
51286;SDS011;37364;46.974;18.916;2023-12-14T04:26:49;42.60;;;26.15;;
51286;SDS011;37364;46.974;18.916;2023-12-14T04:29:19;47.17;;;30.30;;
51286;SDS011;37364;46.974;18.916;2023-12-14T04:31:50;49.08;;;30.17;;
51286;SDS011;37364;46.974;18.916;2023-12-14T04:34:21;54.15;;;31.05;;
51286;SDS011;37364;46.974;18.916;2023-12-14T04:36:52;52.15;;;31.17;;
51286;SDS011;37364;46.974;18.916;2023-12-14T04:39:27;58.58;;;33.58;;
51286;SDS011;37364;46.974;18.916;2023-12-14T04:44:29;62.92;;;32.25;;
51286;SDS011;37364;46.974;18.916;2023-12-14T04:47:00;70.60;;;36.40;;
51286;SDS011;37364;46.974;18.916;2023-12-14T04:49:31;79.15;;;44.67;;
51286;SDS011;37364;46.974;18.916;2023-12-14T04:52:02;82.13;;;40.17;;
51286;SDS011;37364;46.974;18.916;2023-12-14T04:54:36;79.90;;;41.55;;
51286;SDS011;37364;46.974;18.916;2023-12-14T04:57:09;65.28;;;35.60;;
51286;SDS011;37364;46.974;18.916;2023-12-14T04:59:40;65.38;;;36.38;;
51286;SDS011;37364;46.974;18.916;2023-12-14T05:02:11;79.30;;;42.20;;
51286;SDS011;37364;46.974;18.916;2023-12-14T05:04:43;73.07;;;38.20;;
51286;SDS011;37364;46.974;18.916;2023-12-14T05:07:13;66.72;;;35.55;;
51286;SDS011;37364;46.974;18.916;2023-12-14T05:09:48;56.35;;;30.65;;
51286;SDS011;37364;46.974;18.916;2023-12-14T05:14:52;56.97;;;31.42;;
51286;SDS011;37364;46.974;18.916;2023-12-14T05:17:23;63.03;;;34.75;;
51286;SDS011;37364;46.974;18.916;2023-12-14T05:19:57;58.78;;;35.20;;
51286;SDS011;37364;46.974;18.916;2023-12-14T05:22:29;63.85;;;33.28;;
51286;SDS011;37364;46.974;18.916;2023-12-14T05:25:03;71.15;;;34.38;;
51286;SDS011;37364;46.974;18.916;2023-12-14T05:27:34;63.42;;;33.17;;
51286;SDS011;37364;46.974;18.916;2023-12-14T05:30:06;59.78;;;34.22;;
51286;SDS011;37364;46.974;18.916;2023-12-14T05:32:38;63.45;;;33.20;;
51286;SDS011;37364;46.974;18.916;2023-12-14T05:35:09;65.22;;;34.28;;
51286;SDS011;37364;46.974;18.916;2023-12-14T05:37:40;61.10;;;35.40;;
51286;SDS011;37364;46.974;18.916;2023-12-14T05:40:14;66.22;;;34.28;;
51286;SDS011;37364;46.974;18.916;2023-12-14T05:42:45;65.75;;;37.05;;
51286;SDS011;37364;46.974;18.916;2023-12-14T05:45:16;73.20;;;38.17;;
51286;SDS011;37364;46.974;18.916;2023-12-14T05:47:52;73.68;;;37.20;;
51286;SDS011;37364;46.974;18.916;2023-12-14T05:50:23;79.93;;;38.58;;
51286;SDS011;37364;46.974;18.916;2023-12-14T05:52:54;76.63;;;39.95;;
51286;SDS011;37364;46.974;18.916;2023-12-14T05:55:28;77.88;;;39.72;;
51286;SDS011;37364;46.974;18.916;2023-12-14T05:57:59;77.78;;;41.60;;
51286;SDS011;37364;46.974;18.916;2023-12-14T06:00:30;80.30;;;42.60;;
51286;SDS011;37364;46.974;18.916;2023-12-14T06:03:07;80.35;;;42.58;;
51286;SDS011;37364;46.974;18.916;2023-12-14T06:05:38;95.82;;;45.20;;
51286;SDS011;37364;46.974;18.916;2023-12-14T06:08:09;90.85;;;42.53;;
51286;SDS011;37364;46.974;18.916;2023-12-14T06:10:43;79.85;;;43.50;;
51286;SDS011;37364;46.974;18.916;2023-12-14T06:13:14;148.80;;;69.45;;
51286;SDS011;37364;46.974;18.916;2023-12-14T06:15:45;120.57;;;61.17;;
51286;SDS011;37364;46.974;18.916;2023-12-14T06:18:18;155.90;;;73.82;;
51286;SDS011;37364;46.974;18.916;2023-12-14T06:20:49;122.65;;;62.55;;
51286;SDS011;37364;46.974;18.916;2023-12-14T06:23:20;111.47;;;57.50;;
51286;SDS011;37364;46.974;18.916;2023-12-14T06:25:55;114.28;;;61.05;;
51286;SDS011;37364;46.974;18.916;2023-12-14T06:28:30;106.00;;;53.35;;
51286;SDS011;37364;46.974;18.916;2023-12-14T06:31:01;111.45;;;59.67;;
51286;SDS011;37364;46.974;18.916;2023-12-14T06:33:32;127.30;;;63.90;;
51286;SDS011;37364;46.974;18.916;2023-12-14T06:36:03;106.25;;;52.45;;
51286;SDS011;37364;46.974;18.916;2023-12-14T06:38:36;95.93;;;52.70;;
51286;SDS011;37364;46.974;18.916;2023-12-14T06:41:20;114.65;;;56.33;;
51286;SDS011;37364;46.974;18.916;2023-12-14T06:43:52;116.40;;;53.88;;
51286;SDS011;37364;46.974;18.916;2023-12-14T06:46:23;106.20;;;48.90;;
51286;SDS011;37364;46.974;18.916;2023-12-14T06:48:53;107.13;;;53.33;;
51286;SDS011;37364;46.974;18.916;2023-12-14T06:51:24;168.25;;;87.75;;
51286;SDS011;37364;46.974;18.916;2023-12-14T06:53:55;143.90;;;70.38;;
51286;SDS011;37364;46.974;18.916;2023-12-14T06:56:30;122.78;;;58.55;;
51286;SDS011;37364;46.974;18.916;2023-12-14T06:59:04;172.80;;;85.22;;
51286;SDS011;37364;46.974;18.916;2023-12-14T07:01:34;189.00;;;97.00;;
51286;SDS011;37364;46.974;18.916;2023-12-14T07:04:06;109.32;;;55.05;;
51286;SDS011;37364;46.974;18.916;2023-12-14T07:06:42;121.93;;;64.25;;
51286;SDS011;37364;46.974;18.916;2023-12-14T07:09:13;204.32;;;100.35;;
51286;SDS011;37364;46.974;18.916;2023-12-14T07:11:47;146.88;;;68.82;;
51286;SDS011;37364;46.974;18.916;2023-12-14T07:14:17;152.70;;;79.80;;
51286;SDS011;37364;46.974;18.916;2023-12-14T07:19:23;142.38;;;70.80;;
51286;SDS011;37364;46.974;18.916;2023-12-14T07:21:54;168.05;;;84.10;;
51286;SDS011;37364;46.974;18.916;2023-12-14T07:24:24;148.30;;;63.13;;
51286;SDS011;37364;46.974;18.916;2023-12-14T07:27:09;133.30;;;61.78;;
51286;SDS011;37364;46.974;18.916;2023-12-14T07:29:39;148.18;;;77.38;;
51286;SDS011;37364;46.974;18.916;2023-12-14T07:32:10;124.07;;;62.10;;
51286;SDS011;37364;46.974;18.916;2023-12-14T07:34:41;129.05;;;63.25;;
51286;SDS011;37364;46.974;18.916;2023-12-14T07:37:12;112.60;;;55.95;;
51286;SDS011;37364;46.974;18.916;2023-12-14T07:39:43;126.90;;;63.55;;
51286;SDS011;37364;46.974;18.916;2023-12-14T07:42:17;139.25;;;76.25;;
51286;SDS011;37364;46.974;18.916;2023-12-14T07:44:48;123.68;;;59.70;;
51286;SDS011;37364;46.974;18.916;2023-12-14T07:47:21;117.27;;;60.17;;
51286;SDS011;37364;46.974;18.916;2023-12-14T07:49:52;130.40;;;69.20;;
51286;SDS011;37364;46.974;18.916;2023-12-14T07:52:23;203.13;;;96.43;;
51286;SDS011;37364;46.974;18.916;2023-12-14T07:54:53;201.85;;;103.45;;
51286;SDS011;37364;46.974;18.916;2023-12-14T07:57:27;185.68;;;87.55;;
51286;SDS011;37364;46.974;18.916;2023-12-14T07:59:59;98.45;;;50.70;;
51286;SDS011;37364;46.974;18.916;2023-12-14T08:02:31;165.48;;;90.85;;
51286;SDS011;37364;46.974;18.916;2023-12-14T08:05:04;112.45;;;60.05;;
51286;SDS011;37364;46.974;18.916;2023-12-14T08:07:36;110.82;;;59.35;;
51286;SDS011;37364;46.974;18.916;2023-12-14T08:10:07;112.88;;;59.10;;
51286;SDS011;37364;46.974;18.916;2023-12-14T08:12:41;98.85;;;55.72;;
51286;SDS011;37364;46.974;18.916;2023-12-14T08:15:14;131.38;;;67.32;;
51286;SDS011;37364;46.974;18.916;2023-12-14T08:17:59;125.38;;;69.03;;
51286;SDS011;37364;46.974;18.916;2023-12-14T08:20:30;98.35;;;56.38;;
51286;SDS011;37364;46.974;18.916;2023-12-14T08:23:01;140.73;;;69.07;;
51286;SDS011;37364;46.974;18.916;2023-12-14T08:25:32;104.50;;;55.22;;
51286;SDS011;37364;46.974;18.916;2023-12-14T08:28:07;109.50;;;58.30;;
51286;SDS011;37364;46.974;18.916;2023-12-14T08:30:38;107.40;;;58.42;;
51286;SDS011;37364;46.974;18.916;2023-12-14T08:33:10;95.38;;;51.22;;
51286;SDS011;37364;46.974;18.916;2023-12-14T08:35:41;103.85;;;55.83;;
51286;SDS011;37364;46.974;18.916;2023-12-14T08:38:13;100.78;;;52.28;;
51286;SDS011;37364;46.974;18.916;2023-12-14T08:40:44;115.63;;;60.00;;
51286;SDS011;37364;46.974;18.916;2023-12-14T08:43:18;113.30;;;62.55;;
51286;SDS011;37364;46.974;18.916;2023-12-14T08:45:48;123.95;;;64.63;;
51286;SDS011;37364;46.974;18.916;2023-12-14T08:48:19;117.95;;;62.13;;
51286;SDS011;37364;46.974;18.916;2023-12-14T08:50:50;240.90;;;110.88;;
51286;SDS011;37364;46.974;18.916;2023-12-14T08:53:23;190.05;;;86.60;;
51286;SDS011;37364;46.974;18.916;2023-12-14T08:55:56;209.85;;;90.63;;
51286;SDS011;37364;46.974;18.916;2023-12-14T08:58:32;157.90;;;79.63;;
51286;SDS011;37364;46.974;18.916;2023-12-14T09:01:03;128.50;;;58.33;;
51286;SDS011;37364;46.974;18.916;2023-12-14T09:03:34;115.35;;;60.33;;
51286;SDS011;37364;46.974;18.916;2023-12-14T09:06:05;145.20;;;75.18;;
51286;SDS011;37364;46.974;18.916;2023-12-14T09:08:36;144.18;;;81.75;;
51286;SDS011;37364;46.974;18.916;2023-12-14T09:11:07;125.78;;;65.10;;
51286;SDS011;37364;46.974;18.916;2023-12-14T09:13:41;151.80;;;78.18;;
51286;SDS011;37364;46.974;18.916;2023-12-14T09:16:12;117.70;;;60.33;;
51286;SDS011;37364;46.974;18.916;2023-12-14T09:18:43;93.60;;;50.30;;
51286;SDS011;37364;46.974;18.916;2023-12-14T09:21:14;110.03;;;57.38;;
51286;SDS011;37364;46.974;18.916;2023-12-14T09:23:48;107.60;;;55.40;;
51286;SDS011;37364;46.974;18.916;2023-12-14T09:26:20;99.40;;;48.40;;
51286;SDS011;37364;46.974;18.916;2023-12-14T09:28:53;100.65;;;52.70;;
51286;SDS011;37364;46.974;18.916;2023-12-14T09:33:55;96.45;;;50.00;;
51286;SDS011;37364;46.974;18.916;2023-12-14T09:36:26;96.30;;;50.28;;
51286;SDS011;37364;46.974;18.916;2023-12-14T09:38:57;90.20;;;45.90;;
51286;SDS011;37364;46.974;18.916;2023-12-14T09:41:28;105.88;;;56.22;;
51286;SDS011;37364;46.974;18.916;2023-12-14T09:44:01;113.47;;;57.47;;
51286;SDS011;37364;46.974;18.916;2023-12-14T09:46:34;115.57;;;63.53;;
51286;SDS011;37364;46.974;18.916;2023-12-14T09:49:12;106.32;;;58.50;;
51286;SDS011;37364;46.974;18.916;2023-12-14T09:51:44;74.47;;;43.50;;
51286;SDS011;37364;46.974;18.916;2023-12-14T09:54:14;69.28;;;41.80;;
51286;SDS011;37364;46.974;18.916;2023-12-14T09:56:45;52.22;;;33.40;;
51286;SDS011;37364;46.974;18.916;2023-12-14T09:59:19;50.85;;;32.60;;
51286;SDS011;37364;46.974;18.916;2023-12-14T10:01:51;67.55;;;36.83;;
51286;SDS011;37364;46.974;18.916;2023-12-14T10:04:22;43.83;;;28.02;;
51286;SDS011;37364;46.974;18.916;2023-12-14T10:06:55;50.35;;;30.63;;
51286;SDS011;37364;46.974;18.916;2023-12-14T10:09:25;54.88;;;33.22;;
51286;SDS011;37364;46.974;18.916;2023-12-14T10:12:01;48.90;;;30.95;;
51286;SDS011;37364;46.974;18.916;2023-12-14T10:14:37;53.35;;;33.00;;
51286;SDS011;37364;46.974;18.916;2023-12-14T10:17:16;43.58;;;30.38;;
51286;SDS011;37364;46.974;18.916;2023-12-14T10:19:48;40.00;;;26.77;;
51286;SDS011;37364;46.974;18.916;2023-12-14T10:22:19;44.90;;;32.00;;
51286;SDS011;37364;46.974;18.916;2023-12-14T10:24:50;43.53;;;28.85;;
51286;SDS011;37364;46.974;18.916;2023-12-14T10:27:20;29.08;;;18.80;;
51286;SDS011;37364;46.974;18.916;2023-12-14T10:29:53;44.20;;;28.60;;
51286;SDS011;37364;46.974;18.916;2023-12-14T10:32:25;35.33;;;26.02;;
51286;SDS011;37364;46.974;18.916;2023-12-14T10:34:56;46.08;;;29.60;;
51286;SDS011;37364;46.974;18.916;2023-12-14T10:37:27;40.15;;;26.52;;
51286;SDS011;37364;46.974;18.916;2023-12-14T10:40:00;38.33;;;26.27;;
51286;SDS011;37364;46.974;18.916;2023-12-14T10:42:32;52.65;;;25.00;;
51286;SDS011;37364;46.974;18.916;2023-12-14T10:45:09;36.97;;;26.10;;
51286;SDS011;37364;46.974;18.916;2023-12-14T10:47:48;38.13;;;26.37;;
51286;SDS011;37364;46.974;18.916;2023-12-14T10:50:21;31.67;;;20.80;;
51286;SDS011;37364;46.974;18.916;2023-12-14T10:52:52;41.72;;;27.42;;
51286;SDS011;37364;46.974;18.916;2023-12-14T10:55:23;36.47;;;26.33;;
51286;SDS011;37364;46.974;18.916;2023-12-14T10:57:57;34.42;;;24.23;;
51286;SDS011;37364;46.974;18.916;2023-12-14T11:00:33;33.25;;;23.65;;
51286;SDS011;37364;46.974;18.916;2023-12-14T11:03:05;31.55;;;23.75;;
51286;SDS011;37364;46.974;18.916;2023-12-14T11:05:37;33.83;;;22.85;;
51286;SDS011;37364;46.974;18.916;2023-12-14T11:08:09;32.78;;;24.27;;
51286;SDS011;37364;46.974;18.916;2023-12-14T11:10:41;39.92;;;27.52;;
51286;SDS011;37364;46.974;18.916;2023-12-14T11:13:13;44.63;;;29.27;;
51286;SDS011;37364;46.974;18.916;2023-12-14T11:15:50;33.47;;;22.58;;
51286;SDS011;37364;46.974;18.916;2023-12-14T11:18:25;34.72;;;25.13;;
51286;SDS011;37364;46.974;18.916;2023-12-14T11:20:57;33.47;;;24.55;;
51286;SDS011;37364;46.974;18.916;2023-12-14T11:23:32;32.28;;;25.35;;
51286;SDS011;37364;46.974;18.916;2023-12-14T11:26:06;35.35;;;24.33;;
51286;SDS011;37364;46.974;18.916;2023-12-14T11:28:39;36.20;;;25.50;;
51286;SDS011;37364;46.974;18.916;2023-12-14T11:31:15;40.20;;;26.58;;
51286;SDS011;37364;46.974;18.916;2023-12-14T11:33:47;38.88;;;26.02;;
51286;SDS011;37364;46.974;18.916;2023-12-14T11:36:18;39.70;;;25.27;;
51286;SDS011;37364;46.974;18.916;2023-12-14T11:38:48;38.08;;;24.90;;
51286;SDS011;37364;46.974;18.916;2023-12-14T11:41:21;32.60;;;24.90;;
51286;SDS011;37364;46.974;18.916;2023-12-14T11:43:52;33.22;;;24.95;;
51286;SDS011;37364;46.974;18.916;2023-12-14T11:46:25;31.73;;;24.90;;
51286;SDS011;37364;46.974;18.916;2023-12-14T11:48:56;36.50;;;24.25;;
51286;SDS011;37364;46.974;18.916;2023-12-14T11:51:30;34.83;;;23.23;;
51286;SDS011;37364;46.974;18.916;2023-12-14T11:54:03;42.20;;;27.80;;
51286;SDS011;37364;46.974;18.916;2023-12-14T11:56:34;36.55;;;25.80;;
51286;SDS011;37364;46.974;18.916;2023-12-14T11:59:05;41.92;;;29.65;;
51286;SDS011;37364;46.974;18.916;2023-12-14T12:01:38;76.00;;;45.58;;
51286;SDS011;37364;46.974;18.916;2023-12-14T12:04:09;38.08;;;26.60;;
51286;SDS011;37364;46.974;18.916;2023-12-14T12:06:40;40.03;;;30.00;;
51286;SDS011;37364;46.974;18.916;2023-12-14T12:09:10;55.75;;;38.88;;
51286;SDS011;37364;46.974;18.916;2023-12-14T12:11:40;54.90;;;36.78;;
51286;SDS011;37364;46.974;18.916;2023-12-14T12:14:12;29.58;;;24.30;;
51286;SDS011;37364;46.974;18.916;2023-12-14T12:16:45;36.58;;;28.15;;
51286;SDS011;37364;46.974;18.916;2023-12-14T12:19:17;34.90;;;23.05;;
51286;SDS011;37364;46.974;18.916;2023-12-14T12:21:47;35.65;;;25.00;;
51286;SDS011;37364;46.974;18.916;2023-12-14T12:24:17;42.33;;;21.38;;
51286;SDS011;37364;46.974;18.916;2023-12-14T12:26:53;30.77;;;21.85;;
51286;SDS011;37364;46.974;18.916;2023-12-14T12:29:23;38.15;;;23.60;;
51286;SDS011;37364;46.974;18.916;2023-12-14T12:31:56;32.10;;;21.70;;
51286;SDS011;37364;46.974;18.916;2023-12-14T12:34:27;27.75;;;20.63;;
51286;SDS011;37364;46.974;18.916;2023-12-14T12:36:57;24.85;;;19.00;;
51286;SDS011;37364;46.974;18.916;2023-12-14T12:39:27;27.15;;;19.48;;
51286;SDS011;37364;46.974;18.916;2023-12-14T12:41:58;25.60;;;18.42;;
51286;SDS011;37364;46.974;18.916;2023-12-14T12:44:29;26.55;;;19.08;;
51286;SDS011;37364;46.974;18.916;2023-12-14T12:47:02;29.40;;;20.85;;
51286;SDS011;37364;46.974;18.916;2023-12-14T12:49:37;27.67;;;20.08;;
51286;SDS011;37364;46.974;18.916;2023-12-14T12:52:08;31.80;;;21.08;;
51286;SDS011;37364;46.974;18.916;2023-12-14T12:54:38;30.63;;;21.92;;
51286;SDS011;37364;46.974;18.916;2023-12-14T12:57:08;28.83;;;21.65;;
51286;SDS011;37364;46.974;18.916;2023-12-14T12:59:39;35.42;;;21.92;;
51286;SDS011;37364;46.974;18.916;2023-12-14T13:02:12;71.55;;;35.13;;
51286;SDS011;37364;46.974;18.916;2023-12-14T13:04:43;55.03;;;31.85;;
51286;SDS011;37364;46.974;18.916;2023-12-14T13:07:13;41.20;;;25.00;;
51286;SDS011;37364;46.974;18.916;2023-12-14T13:09:45;31.48;;;19.42;;
51286;SDS011;37364;46.974;18.916;2023-12-14T13:12:15;70.03;;;40.25;;
51286;SDS011;37364;46.974;18.916;2023-12-14T13:14:46;40.92;;;27.08;;
51286;SDS011;37364;46.974;18.916;2023-12-14T13:17:19;28.08;;;19.08;;
51286;SDS011;37364;46.974;18.916;2023-12-14T13:19:50;36.58;;;25.23;;
51286;SDS011;37364;46.974;18.916;2023-12-14T13:22:23;30.73;;;21.50;;
51286;SDS011;37364;46.974;18.916;2023-12-14T13:24:57;32.17;;;22.95;;
51286;SDS011;37364;46.974;18.916;2023-12-14T13:27:27;27.48;;;19.33;;
51286;SDS011;37364;46.974;18.916;2023-12-14T13:29:59;32.22;;;21.42;;
51286;SDS011;37364;46.974;18.916;2023-12-14T13:32:32;31.80;;;21.60;;
51286;SDS011;37364;46.974;18.916;2023-12-14T13:35:03;32.70;;;22.47;;
51286;SDS011;37364;46.974;18.916;2023-12-14T13:37:35;30.90;;;20.77;;
51286;SDS011;37364;46.974;18.916;2023-12-14T13:40:07;29.17;;;18.90;;
51286;SDS011;37364;46.974;18.916;2023-12-14T13:42:41;29.70;;;22.13;;
51286;SDS011;37364;46.974;18.916;2023-12-14T13:45:29;25.67;;;18.38;;
51286;SDS011;37364;46.974;18.916;2023-12-14T13:48:04;30.40;;;20.35;;
51286;SDS011;37364;46.974;18.916;2023-12-14T13:50:35;26.15;;;18.40;;
51286;SDS011;37364;46.974;18.916;2023-12-14T13:53:10;24.23;;;16.80;;
51286;SDS011;37364;46.974;18.916;2023-12-14T13:55:43;28.40;;;17.52;;
51286;SDS011;37364;46.974;18.916;2023-12-14T13:58:13;22.15;;;18.00;;
51286;SDS011;37364;46.974;18.916;2023-12-14T14:00:44;22.85;;;17.75;;
51286;SDS011;37364;46.974;18.916;2023-12-14T14:03:17;25.88;;;18.35;;
51286;SDS011;37364;46.974;18.916;2023-12-14T14:05:47;27.97;;;18.17;;
51286;SDS011;37364;46.974;18.916;2023-12-14T14:08:21;29.83;;;17.58;;
51286;SDS011;37364;46.974;18.916;2023-12-14T14:10:51;28.65;;;19.35;;
51286;SDS011;37364;46.974;18.916;2023-12-14T14:13:22;29.08;;;19.60;;
51286;SDS011;37364;46.974;18.916;2023-12-14T14:15:52;29.23;;;19.20;;
51286;SDS011;37364;46.974;18.916;2023-12-14T14:18:26;27.02;;;19.05;;
51286;SDS011;37364;46.974;18.916;2023-12-14T14:20:57;30.92;;;18.50;;
51286;SDS011;37364;46.974;18.916;2023-12-14T14:23:28;33.35;;;18.58;;
51286;SDS011;37364;46.974;18.916;2023-12-14T14:25:58;26.15;;;17.23;;
51286;SDS011;37364;46.974;18.916;2023-12-14T14:28:29;30.73;;;18.45;;
51286;SDS011;37364;46.974;18.916;2023-12-14T14:31:00;25.95;;;18.52;;
51286;SDS011;37364;46.974;18.916;2023-12-14T14:33:33;27.50;;;18.42;;
51286;SDS011;37364;46.974;18.916;2023-12-14T14:36:05;31.42;;;18.15;;
51286;SDS011;37364;46.974;18.916;2023-12-14T14:38:36;25.63;;;17.50;;
51286;SDS011;37364;46.974;18.916;2023-12-14T14:41:06;27.77;;;17.70;;
51286;SDS011;37364;46.974;18.916;2023-12-14T14:43:41;23.17;;;17.05;;
51286;SDS011;37364;46.974;18.916;2023-12-14T14:46:11;32.95;;;21.27;;